Time;durP1;ratioP1;P1;durP2;ratioP2;P2;SDS_P1;SDS_P2;PMS_P1;PMS_P2;Temp;Humidity;BMP_temperature;BMP_pressure;BME280_temperature;BME280_humidity;BME280_pressure;Samples;Min_cycle;Max_cycle;Signal;HPM_P1;HPM_P2
2023/08/23 00:02:01;;;;;;;;;;;;;;;21.55;100.00;99774.97;5031940;28;848;-65
2023/08/23 00:04:29;;;;;;;;;;;;;;;21.52;100.00;99773.91;5032008;28;837;-66
2023/08/23 00:06:56;;;;;;;;;;;;;;;21.48;100.00;99770.50;5032262;28;853;-64
2023/08/23 00:09:23;;;;;;;;;;;;;;;21.46;100.00;99769.41;5031947;28;797;-65
2023/08/23 00:11:50;;;;;;;;;;;;;;;21.44;100.00;99763.50;5014169;28;1520;-66
2023/08/23 00:14:16;;;;;;;;;;;;;;;21.40;100.00;99764.44;5031841;28;816;-65
2023/08/23 00:16:43;;;;;;;;;;;;;;;21.36;100.00;99774.31;5031829;28;903;-66
2023/08/23 00:19:10;;;;;;;;;;;;;;;21.33;100.00;99767.59;5031785;28;1882;-65
2023/08/23 00:21:36;;;;;;;;;;;;;;;21.30;100.00;99776.22;5031764;28;816;-65
2023/08/23 00:24:03;;;;;;;;;;;;;;;21.28;100.00;99778.72;5031866;28;848;-65
2023/08/23 00:26:30;;;;;;;;;;;;;;;21.24;100.00;99778.13;5030726;28;842;-66
2023/08/23 00:28:57;;;;;;;;;;;;;;;21.22;100.00;99778.59;5031759;28;821;-66
2023/08/23 00:31:23;;;;;;;;;;;;;;;21.18;100.00;99775.16;5031525;28;860;-66
2023/08/23 00:33:49;;;;;;;;;;;;;;;21.14;100.00;99778.16;5030086;28;824;-64
2023/08/23 00:36:15;;;;;;;;;;;;;;;21.12;100.00;99777.88;5031614;28;998;-65
2023/08/23 00:38:42;;;;;;;;;;;;;;;21.11;100.00;99781.16;5031496;28;1955;-66
2023/08/23 00:41:09;;;;;;;;;;;;;;;21.08;100.00;99773.66;5031518;28;877;-65
2023/08/23 00:43:36;;;;;;;;;;;;;;;21.06;100.00;99778.97;5031586;28;1160;-65
2023/08/23 00:46:02;;;;;;;;;;;;;;;21.03;100.00;99779.94;5031500;28;891;-65
2023/08/23 00:48:29;;;;;;;;;;;;;;;21.01;100.00;99774.78;5013803;28;1200;-65
2023/08/23 00:50:57;;;;;;;;;;;;;;;21.01;100.00;99777.59;5031552;28;872;-65
2023/08/23 00:53:23;;;;;;;;;;;;;;;21.03;100.00;99783.50;5031756;28;800;-65
2023/08/23 00:55:50;;;;;;;;;;;;;;;21.00;100.00;99774.00;5031383;28;867;-65
2023/08/23 00:58:18;;;;;;;;;;;;;;;20.97;100.00;99780.59;5031345;28;1910;-65
2023/08/23 01:00:44;;;;;;;;;;;;;;;20.96;100.00;99779.03;5031360;28;836;-65
2023/08/23 01:03:11;;;;;;;;;;;;;;;20.92;100.00;99775.59;5031358;28;864;-65
2023/08/23 01:06:10;;;;;;;;;;;;;;;20.90;100.00;99778.09;5031412;28;820;-65
2023/08/23 01:08:43;;;;;;;;;;;;;;;20.89;100.00;99775.78;4998409;28;1256;-65
2023/08/23 01:11:19;;;;;;;;;;;;;;;20.88;100.00;99774.22;5031341;28;848;-65
2023/08/23 01:13:45;;;;;;;;;;;;;;;20.91;100.00;99770.44;5031218;28;847;-66
2023/08/23 01:16:12;;;;;;;;;;;;;;;20.90;100.00;99775.31;5031463;28;900;-66
2023/08/23 01:18:40;;;;;;;;;;;;;;;20.88;100.00;99786.22;5031394;28;1945;-65
2023/08/23 01:21:07;;;;;;;;;;;;;;;20.86;100.00;99782.34;5031456;28;927;-65
2023/08/23 01:23:33;;;;;;;;;;;;;;;20.84;100.00;99782.03;5031213;28;895;-65
2023/08/23 01:26:00;;;;;;;;;;;;;;;20.84;100.00;99768.00;5031189;28;849;-65
2023/08/23 01:28:27;;;;;;;;;;;;;;;20.85;100.00;99775.19;5031074;28;828;-65
2023/08/23 01:30:55;;;;;;;;;;;;;;;20.88;100.00;99768.59;5031038;28;849;-65
2023/08/23 01:33:33;;;;;;;;;;;;;;;20.86;100.00;99773.91;5031069;28;882;-65
2023/08/23 01:36:07;;;;;;;;;;;;;;;20.81;100.00;99764.13;5031044;28;956;-66
2023/08/23 01:38:34;;;;;;;;;;;;;;;20.80;100.00;99768.97;5034592;28;1882;-65
2023/08/23 01:41:02;;;;;;;;;;;;;;;20.79;100.00;99761.00;5034600;28;839;-65
2023/08/23 01:43:29;;;;;;;;;;;;;;;20.76;100.00;99768.34;5034449;28;888;-65
2023/08/23 01:45:55;;;;;;;;;;;;;;;20.76;100.00;99767.53;5034441;28;1414;-65
2023/08/23 01:48:22;;;;;;;;;;;;;;;20.73;100.00;99769.28;5034510;28;824;-65
2023/08/23 01:50:50;;;;;;;;;;;;;;;20.75;100.00;99771.63;5034477;28;923;-65
2023/08/23 01:53:17;;;;;;;;;;;;;;;20.76;100.00;99759.94;5034317;28;832;-65
2023/08/23 01:55:43;;;;;;;;;;;;;;;20.75;100.00;99766.00;5034417;28;857;-65
2023/08/23 01:58:10;;;;;;;;;;;;;;;20.78;100.00;99759.44;5034017;28;1919;-65
2023/08/23 02:00:37;;;;;;;;;;;;;;;20.77;100.00;99753.03;5014521;28;899;-65
2023/08/23 02:03:04;;;;;;;;;;;;;;;20.77;100.00;99752.28;5014301;28;886;-65
2023/08/23 02:05:31;;;;;;;;;;;;;;;20.79;100.00;99749.75;5014037;28;918;-66
2023/08/23 02:07:58;;;;;;;;;;;;;;;20.80;100.00;99742.88;5025340;28;832;-65
2023/08/23 02:10:25;;;;;;;;;;;;;;;20.82;100.00;99753.66;5034046;28;823;-65
2023/08/23 02:12:52;;;;;;;;;;;;;;;20.86;100.00;99746.59;5034252;28;852;-65
2023/08/23 02:15:19;;;;;;;;;;;;;;;20.86;100.00;99752.22;5033927;28;977;-66
2023/08/23 02:17:45;;;;;;;;;;;;;;;20.85;100.00;99745.06;5033908;28;840;-65
2023/08/23 02:20:11;;;;;;;;;;;;;;;20.85;100.00;99756.28;5033790;28;1886;-64
2023/08/23 02:22:39;;;;;;;;;;;;;;;20.82;100.00;99754.41;5033898;28;879;-64
2023/08/23 02:25:05;;;;;;;;;;;;;;;20.78;100.00;99756.63;5033688;28;894;-65
2023/08/23 02:27:32;;;;;;;;;;;;;;;20.74;100.00;99756.81;5033697;28;833;-65
2023/08/23 02:29:58;;;;;;;;;;;;;;;20.72;100.00;99756.50;5033686;28;864;-65
2023/08/23 02:32:25;;;;;;;;;;;;;;;20.74;100.00;99754.00;5033653;28;825;-65
2023/08/23 02:34:52;;;;;;;;;;;;;;;20.75;100.00;99760.38;5033672;28;808;-65
2023/08/23 02:37:18;;;;;;;;;;;;;;;20.73;100.00;99768.50;5015850;28;869;-66
2023/08/23 02:39:45;;;;;;;;;;;;;;;20.74;100.00;99758.81;5033460;28;1878;-65
2023/08/23 02:42:12;;;;;;;;;;;;;;;20.74;100.00;99759.63;5033481;28;883;-65
2023/08/23 02:44:38;;;;;;;;;;;;;;;20.79;100.00;99761.00;5032517;28;1222;-65
2023/08/23 02:47:05;;;;;;;;;;;;;;;20.85;100.00;99761.13;5033468;28;891;-65
2023/08/23 02:49:32;;;;;;;;;;;;;;;20.88;100.00;99760.94;5032423;28;853;-65
2023/08/23 02:51:58;;;;;;;;;;;;;;;20.91;100.00;99753.59;5033244;28;840;-65
2023/08/23 02:54:25;;;;;;;;;;;;;;;20.95;100.00;99755.00;5033615;28;878;-65
2023/08/23 02:56:52;;;;;;;;;;;;;;;20.98;100.00;99756.84;5033135;28;836;-66
2023/08/23 02:59:19;;;;;;;;;;;;;;;21.01;100.00;99755.88;5033093;28;1915;-66
2023/08/23 03:01:46;;;;;;;;;;;;;;;21.00;100.00;99759.97;5015256;28;1217;-65
2023/08/23 03:04:13;;;;;;;;;;;;;;;20.97;100.00;99760.13;5033075;28;856;-65
2023/08/23 03:06:39;;;;;;;;;;;;;;;20.91;100.00;99760.03;5033045;28;864;-66
2023/08/23 03:09:06;;;;;;;;;;;;;;;20.88;100.00;99769.38;5032950;28;895;-66
2023/08/23 03:11:33;;;;;;;;;;;;;;;20.88;100.00;99763.75;5032946;28;902;-66
2023/08/23 03:13:59;;;;;;;;;;;;;;;20.85;100.00;99769.56;5032827;28;864;-65
2023/08/23 03:16:26;;;;;;;;;;;;;;;20.85;100.00;99772.38;5032863;28;935;-66
2023/08/23 03:18:53;;;;;;;;;;;;;;;20.85;100.00;99770.34;5032704;28;1949;-66
2023/08/23 03:21:19;;;;;;;;;;;;;;;20.86;100.00;99765.50;5032727;28;809;-66
2023/08/23 03:23:46;;;;;;;;;;;;;;;20.85;100.00;99769.56;5032665;28;879;-65
2023/08/23 03:26:13;;;;;;;;;;;;;;;20.87;100.00;99770.66;5032533;28;825;-66
2023/08/23 03:28:39;;;;;;;;;;;;;;;20.89;100.00;99773.75;5032587;28;860;-65
2023/08/23 03:31:06;;;;;;;;;;;;;;;20.92;100.00;99767.19;5032585;28;884;-66
2023/08/23 03:33:32;;;;;;;;;;;;;;;20.92;100.00;99772.78;5032556;28;845;-66
2023/08/23 03:35:59;;;;;;;;;;;;;;;20.90;100.00;99775.31;5032505;28;874;-65
2023/08/23 03:38:26;;;;;;;;;;;;;;;20.93;100.00;99777.19;5032526;28;1882;-65
2023/08/23 03:40:53;;;;;;;;;;;;;;;20.95;100.00;99771.88;5032353;28;978;-65
2023/08/23 03:43:19;;;;;;;;;;;;;;;20.94;100.00;99767.47;5032836;28;1006;-65
2023/08/23 03:45:47;;;;;;;;;;;;;;;20.94;100.00;99770.28;5032250;28;1504;-66
2023/08/23 03:48:14;;;;;;;;;;;;;;;20.95;100.00;99771.06;5032121;28;891;-66
2023/08/23 03:50:42;;;;;;;;;;;;;;;20.99;100.00;99769.66;5032303;28;824;-66
2023/08/23 03:53:09;;;;;;;;;;;;;;;21.04;100.00;99771.03;5032155;28;871;-66
2023/08/23 03:55:36;;;;;;;;;;;;;;;21.07;100.00;99763.69;5032153;28;869;-65
2023/08/23 03:58:03;;;;;;;;;;;;;;;21.12;100.00;99763.81;5031953;28;1996;-65
2023/08/23 04:00:30;;;;;;;;;;;;;;;21.20;100.00;99770.63;5032241;28;899;-65
2023/08/23 04:02:56;;;;;;;;;;;;;;;21.27;100.00;99766.69;5032044;28;882;-65
2023/08/23 04:05:23;;;;;;;;;;;;;;;21.31;100.00;99764.47;5031995;28;886;-65
2023/08/23 04:07:50;;;;;;;;;;;;;;;21.36;100.00;99763.06;5032153;28;907;-66
2023/08/23 04:10:17;;;;;;;;;;;;;;;21.40;100.00;99769.25;5031934;28;907;-65
2023/08/23 04:12:44;;;;;;;;;;;;;;;21.44;100.00;99766.31;5031976;28;836;-65
2023/08/23 04:15:10;;;;;;;;;;;;;;;21.47;100.00;99771.00;5031771;28;891;-65
2023/08/23 04:17:38;;;;;;;;;;;;;;;21.53;100.00;99769.03;5031983;28;836;-66
2023/08/23 04:20:06;;;;;;;;;;;;;;;21.60;100.00;99769.47;5031814;28;1886;-65
2023/08/23 04:22:32;;;;;;;;;;;;;;;21.64;100.00;99774.94;5031842;28;887;-66
2023/08/23 04:24:59;;;;;;;;;;;;;;;21.64;100.00;99780.56;5031755;28;860;-66
2023/08/23 04:27:25;;;;;;;;;;;;;;;21.66;100.00;99768.81;5031745;28;852;-66
2023/08/23 04:29:52;;;;;;;;;;;;;;;21.71;100.00;99776.59;5031860;28;875;-67
2023/08/23 04:32:19;;;;;;;;;;;;;;;21.78;100.00;99770.59;5031858;28;821;-66
2023/08/23 04:34:46;;;;;;;;;;;;;;;21.86;100.00;99773.81;5031859;28;825;-66
2023/08/23 04:37:12;;;;;;;;;;;;;;;21.94;100.00;99775.00;5031836;28;844;-66
2023/08/23 04:39:39;;;;;;;;;;;;;;;22.03;100.00;99769.28;5031851;28;1890;-66
2023/08/23 04:42:05;;;;;;;;;;;;;;;22.15;100.00;99776.69;5031657;28;1203;-66
2023/08/23 04:44:31;;;;;;;;;;;;;;;22.28;100.00;99773.63;5031796;28;1379;-66
2023/08/23 04:47:00;;;;;;;;;;;;;;;22.42;100.00;99781.31;5031592;28;852;-65
2023/08/23 04:49:27;;;;;;;;;;;;;;;22.59;100.00;99775.94;5031620;28;813;-65
2023/08/23 04:51:54;;;;;;;;;;;;;;;22.71;100.00;99771.28;5031552;28;844;-66
2023/08/23 04:54:21;;;;;;;;;;;;;;;22.82;100.00;99777.09;5031621;28;896;-66
2023/08/23 04:56:48;;;;;;;;;;;;;;;22.93;100.00;99779.31;5031436;28;1046;-66
2023/08/23 04:59:15;;;;;;;;;;;;;;;23.12;99.92;99779.09;5031450;28;1909;-66
2023/08/23 05:01:41;;;;;;;;;;;;;;;23.42;98.04;99769.28;5032058;28;848;-65
2023/08/23 05:04:07;;;;;;;;;;;;;;;23.76;95.04;99764.09;5031731;28;1211;-67
2023/08/23 05:06:35;;;;;;;;;;;;;;;24.07;91.98;99767.50;5031268;28;892;-68
2023/08/23 05:09:02;;;;;;;;;;;;;;;24.19;91.15;99766.34;5031468;28;1230;-67
2023/08/23 05:11:28;;;;;;;;;;;;;;;24.30;90.15;99763.63;5031716;28;856;-67
2023/08/23 05:13:55;;;;;;;;;;;;;;;24.42;89.33;99764.50;5035169;28;852;-67
2023/08/23 05:16:22;;;;;;;;;;;;;;;24.95;86.09;99768.06;5035017;28;1045;-67
2023/08/23 05:18:49;;;;;;;;;;;;;;;25.36;82.92;99764.97;5035047;28;1890;-66
2023/08/23 05:21:16;;;;;;;;;;;;;;;25.58;81.13;99758.66;5034932;28;935;-66
2023/08/23 05:23:42;;;;;;;;;;;;;;;25.59;80.40;99766.63;5034995;28;824;-68
2023/08/23 05:26:09;;;;;;;;;;;;;;;25.54;80.13;99766.59;5034765;28;879;-67
2023/08/23 05:28:36;;;;;;;;;;;;;;;25.84;78.21;99756.44;5034982;28;887;-66
2023/08/23 05:31:03;;;;;;;;;;;;;;;26.34;74.90;99760.69;5034830;28;882;-68
2023/08/23 05:33:30;;;;;;;;;;;;;;;26.40;72.90;99755.03;5034763;28;907;-67
2023/08/23 05:35:56;;;;;;;;;;;;;;;26.54;72.88;99753.22;5017026;28;1382;-67
2023/08/23 05:38:26;;;;;;;;;;;;;;;26.72;72.35;99758.41;5034594;28;1885;-66
2023/08/23 05:40:53;;;;;;;;;;;;;;;26.84;71.81;99762.78;5034670;28;1318;-67
2023/08/23 05:43:20;;;;;;;;;;;;;;;27.02;70.10;99752.97;5034916;28;926;-68
2023/08/23 05:45:47;;;;;;;;;;;;;;;27.29;68.80;99759.13;5034486;28;1242;-68
2023/08/23 05:48:14;;;;;;;;;;;;;;;27.60;67.57;99757.19;5034878;28;812;-66
2023/08/23 05:50:41;;;;;;;;;;;;;;;28.00;64.54;99754.97;5034545;28;928;-68
2023/08/23 05:53:14;;;;;;;;;;;;;;;28.74;59.11;99750.28;5034376;28;892;-67
2023/08/23 05:55:41;;;;;;;;;;;;;;;30.00;51.09;99748.38;5034341;28;836;-68
2023/08/23 05:58:08;;;;;;;;;;;;;;;30.88;47.71;99753.25;5034277;28;1977;-67
2023/08/23 06:00:35;;;;;;;;;;;;;;;31.22;45.63;99749.75;5034235;28;832;-67
2023/08/23 06:03:01;;;;;;;;;;;;;;;31.27;44.78;99754.59;5034250;28;829;-67
2023/08/23 06:05:28;;;;;;;;;;;;;;;31.28;44.27;99752.50;5034319;28;832;-66
2023/08/23 06:07:55;;;;;;;;;;;;;;;31.29;43.95;99751.19;5034197;28;867;-67
2023/08/23 06:10:22;;;;;;;;;;;;;;;31.32;43.52;99759.44;5034083;28;824;-67
2023/08/23 06:12:49;;;;;;;;;;;;;;;31.48;43.20;99765.38;5034120;28;951;-66
2023/08/23 06:15:15;;;;;;;;;;;;;;;31.72;41.91;99755.78;5033982;28;896;-67
2023/08/23 06:17:42;;;;;;;;;;;;;;;31.90;41.25;99756.94;5034017;28;884;-67
2023/08/23 06:20:09;;;;;;;;;;;;;;;32.09;40.45;99765.38;5034038;28;1942;-66
2023/08/23 06:22:36;;;;;;;;;;;;;;;32.38;39.37;99762.66;5033889;28;809;-66
2023/08/23 06:25:05;;;;;;;;;;;;;;;32.65;38.53;99764.06;5034047;28;797;-67
2023/08/23 06:27:32;;;;;;;;;;;;;;;32.93;38.22;99759.72;5033831;28;899;-67
2023/08/23 06:29:58;;;;;;;;;;;;;;;33.21;36.20;99758.22;5033781;28;879;-66
2023/08/23 06:32:25;;;;;;;;;;;;;;;33.64;34.57;99763.25;5033689;28;883;-67
2023/08/23 06:34:53;;;;;;;;;;;;;;;34.26;33.80;99764.25;5033658;28;985;-67
2023/08/23 06:37:21;;;;;;;;;;;;;;;35.03;31.97;99766.41;5033649;28;785;-68
2023/08/23 06:39:49;;;;;;;;;;;;;;;35.60;31.22;99770.91;5033521;28;1939;-67
2023/08/23 06:42:17;;;;;;;;;;;;;;;36.05;30.58;99769.22;5033453;28;900;-66
2023/08/23 06:44:44;;;;;;;;;;;;;;;36.61;29.46;99766.97;5033267;28;1231;-66
2023/08/23 06:47:10;;;;;;;;;;;;;;;36.73;29.21;99767.25;5033459;28;852;-66
2023/08/23 06:49:37;;;;;;;;;;;;;;;37.13;28.99;99769.25;5033260;28;873;-67
2023/08/23 06:52:04;;;;;;;;;;;;;;;37.47;28.87;99770.59;5033359;28;828;-67
2023/08/23 06:54:31;;;;;;;;;;;;;;;37.44;29.22;99771.78;5033098;28;868;-69
2023/08/23 06:56:57;;;;;;;;;;;;;;;37.59;29.01;99771.63;5033191;28;876;-66
2023/08/23 06:59:24;;;;;;;;;;;;;;;37.89;28.54;99773.38;5033228;28;1965;-65
2023/08/23 07:01:51;;;;;;;;;;;;;;;38.02;28.31;99771.47;5033314;28;840;-65
2023/08/23 07:04:17;;;;;;;;;;;;;;;37.89;28.58;99770.47;5033163;28;844;-66
2023/08/23 07:06:43;;;;;;;;;;;;;;;37.74;28.53;99770.69;5032986;28;828;-65
2023/08/23 07:09:10;;;;;;;;;;;;;;;37.64;28.57;99764.06;5032904;28;959;-67
2023/08/23 07:11:38;;;;;;;;;;;;;;;37.12;29.49;99759.06;5033092;28;859;-68
2023/08/23 07:14:06;;;;;;;;;;;;;;;36.87;29.89;99759.06;5033012;28;821;-67
2023/08/23 07:16:33;;;;;;;;;;;;;;;36.91;29.80;99759.41;5032869;28;910;-67
2023/08/23 07:19:02;;;;;;;;;;;;;;;36.96;29.54;99759.19;5032743;28;1886;-67
2023/08/23 07:21:29;;;;;;;;;;;;;;;37.10;29.84;99756.75;5032805;28;886;-67
2023/08/23 07:23:56;;;;;;;;;;;;;;;37.47;28.93;99765.59;5032589;28;910;-67
2023/08/23 07:26:23;;;;;;;;;;;;;;;37.90;29.03;99751.06;5032649;28;836;-67
2023/08/23 07:28:50;;;;;;;;;;;;;;;38.46;28.59;99759.13;5032609;28;847;-67
2023/08/23 07:31:16;;;;;;;;;;;;;;;38.95;27.69;99763.75;5032912;28;868;-67
2023/08/23 07:33:43;;;;;;;;;;;;;;;39.39;27.26;99759.88;5014865;28;1251;-66
2023/08/23 07:36:10;;;;;;;;;;;;;;;39.57;26.65;99763.34;5032203;28;899;-67
2023/08/23 07:38:37;;;;;;;;;;;;;;;39.62;26.76;99761.53;5032363;28;1926;-67
2023/08/23 07:41:03;;;;;;;;;;;;;;;39.81;26.62;99761.50;5032367;28;915;-67
2023/08/23 07:43:29;;;;;;;;;;;;;;;39.96;26.14;99757.53;5032427;28;1012;-67
2023/08/23 07:45:58;;;;;;;;;;;;;;;39.78;26.24;99753.31;5032175;28;1481;-67
2023/08/23 07:48:25;;;;;;;;;;;;;;;39.33;26.38;99753.59;5032419;28;853;-67
2023/08/23 07:50:53;;;;;;;;;;;;;;;39.01;26.58;99757.69;5032180;28;872;-72
2023/08/23 07:53:19;;;;;;;;;;;;;;;39.29;26.78;99759.06;5032114;28;846;-67
2023/08/23 07:55:46;;;;;;;;;;;;;;;39.66;26.12;99761.81;5032151;28;899;-67
2023/08/23 07:58:13;;;;;;;;;;;;;;;39.95;25.95;99758.19;5032025;28;2007;-67
2023/08/23 08:00:40;;;;;;;;;;;;;;;40.12;25.24;99746.41;5014333;28;2047;-67
2023/08/23 08:03:07;;;;;;;;;;;;;;;40.19;25.45;99756.28;5032162;28;981;-67
2023/08/23 08:05:34;;;;;;;;;;;;;;;40.32;24.61;99752.13;5014182;28;1680;-68
2023/08/23 08:08:02;;;;;;;;;;;;;;;40.12;25.21;99757.22;5032009;28;840;-67
2023/08/23 08:10:29;;;;;;;;;;;;;;;40.13;24.94;99750.78;5014195;28;1202;-68
2023/08/23 08:12:56;;;;;;;;;;;;;;;40.43;25.18;99748.56;5031886;28;808;-67
2023/08/23 08:15:22;;;;;;;;;;;;;;;39.93;25.68;99750.09;5031836;28;876;-69
2023/08/23 08:17:51;;;;;;;;;;;;;;;39.54;26.42;99755.91;5031895;28;813;-66
2023/08/23 08:20:18;;;;;;;;;;;;;;;39.46;26.58;99754.56;5031710;28;1947;-67
2023/08/23 08:22:46;;;;;;;;;;;;;;;39.34;26.70;99746.44;5031791;28;955;-66
2023/08/23 08:25:12;;;;;;;;;;;;;;;39.49;26.60;99747.53;5031739;28;844;-66
2023/08/23 08:27:39;;;;;;;;;;;;;;;39.69;26.57;99749.06;5031683;28;824;-67
2023/08/23 08:30:06;;;;;;;;;;;;;;;39.96;25.75;99743.06;5031740;28;801;-67
2023/08/23 08:32:33;;;;;;;;;;;;;;;39.97;26.23;99744.59;5031684;28;848;-66
2023/08/23 08:35:00;;;;;;;;;;;;;;;39.71;26.43;99745.53;5031662;28;859;-66
2023/08/23 08:37:26;;;;;;;;;;;;;;;39.40;26.74;99741.16;5031937;28;817;-69
2023/08/23 08:39:52;;;;;;;;;;;;;;;39.50;26.67;99749.06;5031589;28;1957;-66
2023/08/23 08:42:19;;;;;;;;;;;;;;;39.57;26.40;99754.69;5031516;28;892;-66
2023/08/23 08:44:46;;;;;;;;;;;;;;;40.10;25.76;99742.59;5031326;28;1266;-66
2023/08/23 08:47:13;;;;;;;;;;;;;;;40.59;25.36;99738.16;5033142;28;813;-67
2023/08/23 08:49:40;;;;;;;;;;;;;;;40.68;25.03;99736.56;5035651;28;812;-72
2023/08/23 08:52:07;;;;;;;;;;;;;;;39.73;26.13;99737.00;5035475;28;832;-67
2023/08/23 08:54:34;;;;;;;;;;;;;;;38.43;27.59;99734.34;5035441;28;848;-68
2023/08/23 08:57:01;;;;;;;;;;;;;;;37.27;29.39;99735.09;5035545;28;844;-72
2023/08/23 08:59:29;;;;;;;;;;;;;;;36.44;30.41;99741.72;5035549;28;1914;-67
2023/08/23 09:01:57;;;;;;;;;;;;;;;36.33;30.76;99745.84;5035428;28;881;-66
2023/08/23 09:04:24;;;;;;;;;;;;;;;36.14;31.12;99734.84;5035366;28;891;-68
2023/08/23 09:06:51;;;;;;;;;;;;;;;36.22;31.85;99734.03;5035484;28;848;-68
2023/08/23 09:09:20;;;;;;;;;;;;;;;36.86;30.61;99728.75;5035201;28;897;-67
2023/08/23 09:11:47;;;;;;;;;;;;;;;36.89;30.42;99739.09;5035444;28;829;-67
2023/08/23 09:14:14;;;;;;;;;;;;;;;37.52;30.13;99721.34;5035120;28;887;-67
2023/08/23 09:16:41;;;;;;;;;;;;;;;37.13;29.95;99726.78;5035145;28;871;-70
2023/08/23 09:19:10;;;;;;;;;;;;;;;36.42;31.24;99727.16;5035066;28;1969;-69
2023/08/23 09:21:41;;;;;;;;;;;;;;;36.11;31.74;99723.72;5034908;28;836;-66
2023/08/23 09:24:08;;;;;;;;;;;;;;;35.89;32.54;99731.13;5035056;28;887;-68
2023/08/23 09:26:34;;;;;;;;;;;;;;;36.43;31.52;99719.31;5034894;28;1271;-68
2023/08/23 09:29:02;;;;;;;;;;;;;;;36.63;31.66;99721.09;5034967;28;903;-66
2023/08/23 09:31:30;;;;;;;;;;;;;;;37.73;30.01;99725.91;5034752;28;901;-66
2023/08/23 09:33:57;;;;;;;;;;;;;;;38.06;29.33;99709.13;5034857;28;848;-65
2023/08/23 09:36:27;;;;;;;;;;;;;;;37.41;29.94;99713.22;5034764;28;977;-67
2023/08/23 09:38:54;;;;;;;;;;;;;;;36.85;30.77;99715.72;5035015;28;1945;-67
2023/08/23 09:41:22;;;;;;;;;;;;;;;36.55;31.76;99720.34;5034878;28;805;-68
2023/08/23 09:43:51;;;;;;;;;;;;;;;36.58;31.80;99713.44;5034858;28;1197;-67
2023/08/23 09:46:22;;;;;;;;;;;;;;;36.99;30.98;99719.78;5034643;28;911;-64
2023/08/23 09:48:50;;;;;;;;;;;;;;;37.12;30.80;99713.72;5034571;28;892;-66
2023/08/23 09:51:18;;;;;;;;;;;;;;;36.83;30.58;99704.81;5034425;28;899;-67
2023/08/23 09:53:48;;;;;;;;;;;;;;;36.73;30.98;99701.81;5034613;28;825;-68
2023/08/23 09:56:15;;;;;;;;;;;;;;;36.79;31.36;99705.22;5034628;28;816;-68
2023/08/23 09:58:43;;;;;;;;;;;;;;;37.51;30.80;99695.97;5033872;28;1977;-64
2023/08/23 10:01:10;;;;;;;;;;;;;;;38.33;29.23;99700.44;5016565;28;844;-65
2023/08/23 10:03:37;;;;;;;;;;;;;;;38.71;28.90;99696.19;5034191;28;864;-66
2023/08/23 10:06:04;;;;;;;;;;;;;;;39.34;28.03;99696.53;5034237;28;812;-66
2023/08/23 10:08:31;;;;;;;;;;;;;;;39.58;27.40;99692.59;5034079;28;1041;-66
2023/08/23 10:44:57;;;;;;;;;;;;;;;39.56;26.92;99672.22;5314203;23;1620;-64
2023/08/23 10:47:25;;;;;;;;;;;;;;;39.51;26.87;99670.38;5013748;28;830;-67
2023/08/23 10:49:51;;;;;;;;;;;;;;;39.04;27.43;99666.91;5013707;28;855;-72
2023/08/23 10:52:21;;;;;;;;;;;;;;;38.86;27.97;99662.59;5013547;28;875;-74
2023/08/23 10:54:48;;;;;;;;;;;;;;;38.82;27.88;99670.97;5013601;28;816;-69
2023/08/23 10:57:16;;;;;;;;;;;;;;;38.53;28.42;99675.31;5013579;28;832;-69
2023/08/23 10:59:43;;;;;;;;;;;;;;;38.85;27.78;99663.97;5013367;28;2017;-68
2023/08/23 11:02:11;;;;;;;;;;;;;;;38.82;27.68;99662.31;5013468;28;856;-68
2023/08/23 11:04:37;;;;;;;;;;;;;;;38.47;28.50;99659.63;5013371;28;910;-68
2023/08/23 11:07:05;;;;;;;;;;;;;;;37.78;29.00;99655.69;5013263;28;935;-67
2023/08/23 11:09:33;;;;;;;;;;;;;;;37.82;29.46;99646.59;5012570;28;864;-70
2023/08/23 11:12:01;;;;;;;;;;;;;;;38.67;28.20;99649.66;5013223;28;1030;-72
2023/08/23 11:14:28;;;;;;;;;;;;;;;39.15;27.61;99646.06;4995594;28;1329;-69
2023/08/23 11:16:55;;;;;;;;;;;;;;;40.12;26.45;99641.47;5013127;28;876;-71
2023/08/23 11:19:22;;;;;;;;;;;;;;;40.45;25.95;99635.06;5013181;28;1882;-68
2023/08/23 11:21:48;;;;;;;;;;;;;;;39.74;26.60;99640.97;5013087;28;899;-65
2023/08/23 11:24:15;;;;;;;;;;;;;;;38.96;27.45;99643.16;5013139;28;821;-68
2023/08/23 11:26:42;;;;;;;;;;;;;;;38.98;27.57;99638.28;5012994;28;895;-65
2023/08/23 11:29:09;;;;;;;;;;;;;;;39.23;27.39;99634.34;5012997;28;911;-69
2023/08/23 11:31:36;;;;;;;;;;;;;;;39.53;26.81;99626.41;5012946;28;840;-69
2023/08/23 11:34:06;;;;;;;;;;;;;;;39.54;26.69;99625.03;5012983;28;856;-73
2023/08/23 11:36:33;;;;;;;;;;;;;;;39.44;27.08;99610.59;5012886;28;840;-74
2023/08/23 11:39:04;;;;;;;;;;;;;;;39.29;27.08;99631.16;5012824;28;1874;-68
2023/08/23 11:41:33;;;;;;;;;;;;;;;38.68;27.59;99622.28;5012768;28;817;-73
2023/08/23 11:44:03;;;;;;;;;;;;;;;37.38;29.18;99631.59;5012456;28;1240;-70
2023/08/23 11:46:30;;;;;;;;;;;;;;;36.36;31.27;99626.72;5012870;28;883;-69
2023/08/23 11:48:57;;;;;;;;;;;;;;;35.91;31.97;99624.94;5012937;28;848;-66
2023/08/23 11:51:23;;;;;;;;;;;;;;;35.71;32.40;99630.44;5012617;28;1297;-69
2023/08/23 11:53:56;;;;;;;;;;;;;;;35.35;33.54;99627.91;5012801;28;1234;-66
2023/08/23 11:56:23;;;;;;;;;;;;;;;35.02;34.73;99629.94;5012490;28;824;-70
2023/08/23 11:58:50;;;;;;;;;;;;;;;34.77;35.41;99619.09;5012413;28;1906;-72
2023/08/23 12:01:17;;;;;;;;;;;;;;;34.68;36.24;99620.44;5011151;28;1321;-66
2023/08/23 12:03:44;;;;;;;;;;;;;;;34.67;36.67;99624.66;5012402;28;876;-65
2023/08/23 12:06:11;;;;;;;;;;;;;;;34.74;36.66;99620.25;5012354;28;894;-65
2023/08/23 12:08:37;;;;;;;;;;;;;;;34.99;36.31;99611.75;5012305;28;868;-67
2023/08/23 12:11:04;;;;;;;;;;;;;;;34.97;35.63;99612.34;5012506;28;844;-67
2023/08/23 12:13:31;;;;;;;;;;;;;;;35.04;35.43;99622.28;5012022;28;836;-65
2023/08/23 12:15:58;;;;;;;;;;;;;;;35.38;34.53;99606.66;5012344;28;836;-65
2023/08/23 12:18:24;;;;;;;;;;;;;;;36.42;32.59;99602.69;4994494;28;1886;-66
2023/08/23 12:20:51;;;;;;;;;;;;;;;37.51;31.33;99600.88;5012191;28;868;-71
2023/08/23 12:23:18;;;;;;;;;;;;;;;38.33;29.54;99604.44;5012036;28;856;-67
2023/08/23 12:25:45;;;;;;;;;;;;;;;38.21;29.07;99601.38;5012143;28;832;-66
2023/08/23 12:28:13;;;;;;;;;;;;;;;38.64;28.97;99593.13;5012030;28;840;-69
2023/08/23 12:30:41;;;;;;;;;;;;;;;38.87;28.04;99591.91;5012310;28;977;-69
2023/08/23 12:33:07;;;;;;;;;;;;;;;39.44;27.78;99601.19;5012209;28;979;-72
2023/08/23 12:35:34;;;;;;;;;;;;;;;39.86;26.97;99597.72;5011907;28;829;-70
2023/08/23 12:38:00;;;;;;;;;;;;;;;39.86;26.58;99602.72;5012057;28;808;-67
2023/08/23 12:40:27;;;;;;;;;;;;;;;39.73;26.82;99607.63;5011917;28;1947;-69
2023/08/23 12:42:54;;;;;;;;;;;;;;;39.66;26.97;99614.34;5011971;28;932;-65
2023/08/23 12:45:20;;;;;;;;;;;;;;;39.77;26.86;99607.16;5011711;28;1209;-64
2023/08/23 12:47:47;;;;;;;;;;;;;;;39.60;26.99;99616.78;5011905;28;900;-64
2023/08/23 12:50:13;;;;;;;;;;;;;;;39.14;27.46;99603.34;5012066;28;903;-64
2023/08/23 12:52:40;;;;;;;;;;;;;;;39.15;27.69;99608.50;5012293;28;895;-64
2023/08/23 12:55:06;;;;;;;;;;;;;;;39.14;27.58;99601.19;5012039;28;848;-64
2023/08/23 12:57:33;;;;;;;;;;;;;;;39.34;27.62;99601.91;5012123;28;904;-66
2023/08/23 13:00:00;;;;;;;;;;;;;;;39.92;27.02;99595.22;4994212;28;1910;-64
2023/08/23 13:02:27;;;;;;;;;;;;;;;40.55;26.15;99595.97;4994356;28;1308;-65
2023/08/23 13:04:54;;;;;;;;;;;;;;;40.53;25.69;99587.16;5011898;28;841;-64
2023/08/23 13:07:21;;;;;;;;;;;;;;;40.03;25.97;99590.16;5012000;28;852;-70
2023/08/23 13:09:49;;;;;;;;;;;;;;;39.65;26.27;99592.59;5011837;28;935;-69
2023/08/23 13:12:16;;;;;;;;;;;;;;;39.59;26.33;99590.03;5011760;28;840;-62
2023/08/23 13:14:43;;;;;;;;;;;;;;;39.88;26.41;99591.31;5011685;28;899;-68
2023/08/23 13:17:09;;;;;;;;;;;;;;;39.51;26.61;99585.78;5011785;28;850;-68
2023/08/23 13:19:36;;;;;;;;;;;;;;;39.63;26.22;99589.56;5012050;28;1882;-65
2023/08/23 13:22:02;;;;;;;;;;;;;;;39.92;26.16;99586.56;5011699;28;911;-63
2023/08/23 13:24:29;;;;;;;;;;;;;;;40.10;25.50;99586.34;5011758;28;1172;-67
2023/08/23 13:26:56;;;;;;;;;;;;;;;39.81;25.82;99585.06;5011629;28;828;-64
2023/08/23 13:29:23;;;;;;;;;;;;;;;39.70;25.64;99585.72;5011644;28;864;-63
2023/08/23 13:31:50;;;;;;;;;;;;;;;39.97;25.57;99581.84;5011591;28;860;-70
2023/08/23 13:34:17;;;;;;;;;;;;;;;39.64;26.10;99584.53;5013515;28;1511;-69